Time;durP1;ratioP1;P1;durP2;ratioP2;P2;SDS_P1;SDS_P2;PMS_P1;PMS_P2;Temp;Humidity;BMP_temperature;BMP_pressure;BME280_temperature;BME280_humidity;BME280_pressure;Samples;Min_cycle;Max_cycle;Signal;HPM_P1;HPM_P2
2022/04/09 00:05:01;;;;;;;49.23;25.60;;;1.80;99.90;;;;;;10368908;28;20232;-91
2022/04/09 00:10:06;;;;;;;47.87;25.30;;;1.80;99.90;;;;;;10380180;28;20301;-91
2022/04/09 00:15:09;;;;;;;43.17;24.77;;;1.70;99.90;;;;;;10368073;28;20270;-90
2022/04/09 00:20:14;;;;;;;41.57;23.47;;;1.80;99.90;;;;;;10404032;28;20257;-91
2022/04/09 00:25:21;;;;;;;41.53;22.97;;;1.70;99.90;;;;;;10407263;28;20203;-91
2022/04/09 00:30:24;;;;;;;51.37;24.60;;;1.90;99.90;;;;;;10409760;28;20251;-91
2022/04/09 00:35:26;;;;;;;46.80;25.07;;;1.90;99.90;;;;;;10414409;28;20664;-91
2022/04/09 00:40:29;;;;;;;48.83;25.63;;;2.10;99.90;;;;;;10378646;28;20239;-91
2022/04/09 00:45:32;;;;;;;42.27;24.40;;;2.20;99.90;;;;;;10374494;28;20208;-91
2022/04/09 00:50:35;;;;;;;43.57;23.33;;;2.30;99.90;;;;;;10374718;28;20252;-91
2022/04/09 01:01:02;;;;;;;49.57;23.90;;;2.40;99.90;;;;;;10415325;28;20207;-91
2022/04/09 01:06:09;;;;;;;41.37;20.60;;;2.50;99.90;;;;;;10385152;28;20232;-90
2022/04/09 01:11:13;;;;;;;32.23;19.63;;;2.60;99.90;;;;;;10375637;28;20244;-91
2022/04/09 01:16:15;;;;;;;33.40;16.70;;;2.80;99.90;;;;;;10402299;28;20278;-91
2022/04/09 01:21:20;;;;;;;32.87;17.67;;;3.00;99.90;;;;;;10392596;28;20258;-91
2022/04/09 01:26:23;;;;;;;34.63;16.93;;;3.30;99.90;;;;;;10374276;28;20627;-91
2022/04/09 01:31:26;;;;;;;31.23;16.20;;;3.50;99.90;;;;;;10404491;28;20231;-92
2022/04/09 01:36:29;;;;;;;30.03;18.97;;;3.80;99.90;;;;;;10389583;28;20289;-92
2022/04/09 01:41:32;;;;;;;28.70;17.03;;;5.60;99.90;;;;;;10374767;28;20208;-91
2022/04/09 01:46:44;;;;;;;25.50;17.37;;;6.70;99.90;;;;;;10372814;28;20278;-91
2022/04/09 01:51:49;;;;;;;23.90;14.40;;;8.20;99.90;;;;;;10374702;28;20306;-92
2022/04/09 01:56:53;;;;;;;23.60;17.00;;;8.60;99.90;;;;;;10372862;28;20543;-92
2022/04/09 02:01:55;;;;;;;29.00;17.47;;;6.90;99.90;;;;;;10376899;28;20216;-93
2022/04/09 02:06:59;;;;;;;22.10;10.90;;;8.20;99.90;;;;;;10356005;28;20204;-93
2022/04/09 02:12:03;;;;;;;16.43;9.83;;;8.00;92.40;;;;;;10371954;28;20736;-92
2022/04/09 02:17:05;;;;;;;24.27;13.67;;;7.80;95.10;;;;;;10371851;28;20232;-92
2022/04/09 02:22:08;;;;;;;26.90;14.27;;;7.80;99.90;;;;;;10379547;28;20204;-93
2022/04/09 02:27:11;;;;;;;20.97;9.57;;;6.40;99.90;;;;;;10371235;28;20200;-93
2022/04/09 02:32:13;;;;;;;18.00;9.53;;;5.70;98.40;;;;;;10370880;28;20309;-92
2022/04/09 02:37:16;;;;;;;22.00;10.63;;;6.40;99.90;;;;;;10371299;28;20291;-92
2022/04/09 02:42:19;;;;;;;20.80;13.23;;;5.20;99.90;;;;;;10386738;28;20270;-92
2022/04/09 02:47:21;;;;;;;19.57;13.23;;;5.90;99.90;;;;;;10354203;28;20212;-92
2022/04/09 02:52:27;;;;;;;21.30;12.73;;;6.90;99.90;;;;;;10369981;28;20365;-94
2022/04/09 02:57:32;;;;;;;16.47;10.13;;;7.80;99.90;;;;;;10385247;28;20250;-92
2022/04/09 03:02:36;;;;;;;14.13;8.83;;;9.60;94.20;;;;;;10393786;28;20357;-93
2022/04/09 03:07:40;;;;;;;15.70;10.50;;;8.80;97.00;;;;;;10394105;28;20615;-91
2022/04/09 03:12:45;;;;;;;15.83;9.73;;;7.10;96.20;;;;;;10354503;28;20670;-92
2022/04/09 03:17:50;;;;;;;15.47;8.10;;;6.30;99.90;;;;;;10374862;28;20231;-92
2022/04/09 03:22:55;;;;;;;14.37;8.70;;;4.90;99.90;;;;;;10377425;28;20673;-92
2022/04/09 03:28:07;;;;;;;12.17;8.10;;;5.60;99.90;;;;;;10368554;28;20220;-92
2022/04/09 03:33:12;;;;;;;11.60;9.13;;;5.20;99.90;;;;;;10390451;28;20235;-92
2022/04/09 03:38:15;;;;;;;15.57;8.83;;;5.80;99.90;;;;;;10392400;28;20601;-92
2022/04/09 03:43:24;;;;;;;13.10;8.33;;;;;;;;;;10397863;28;20195;-92
2022/04/09 03:48:26;;;;;;;16.20;10.30;;;4.40;99.90;;;;;;10409273;28;20227;-92
2022/04/09 03:53:29;;;;;;;15.93;10.03;;;4.40;99.90;;;;;;10381418;28;20212;-92
2022/04/09 03:58:37;;;;;;;11.73;6.60;;;4.00;99.90;;;;;;10368713;28;20196;-92
2022/04/09 04:03:42;;;;;;;8.07;6.70;;;4.20;99.90;;;;;;10401072;28;20669;-92
2022/04/09 04:08:44;;;;;;;11.70;6.37;;;4.50;99.90;;;;;;10408716;28;20265;-91
2022/04/09 04:13:52;;;;;;;13.37;9.13;;;4.70;99.90;;;;;;10394967;28;20200;-92
2022/04/09 04:18:57;;;;;;;8.80;6.93;;;7.20;99.90;;;;;;10392221;28;20238;-92
2022/04/09 04:24:00;;;;;;;13.00;7.87;;;6.80;99.90;;;;;;10407490;28;20270;-91
2022/04/09 04:29:02;;;;;;;13.10;6.77;;;8.70;99.40;;;;;;10380334;28;20725;-91
2022/04/09 04:34:07;;;;;;;9.07;5.47;;;6.40;97.10;;;;;;10352461;28;20572;-92
2022/04/09 04:39:14;;;;;;;21.67;10.53;;;6.50;99.90;;;;;;10391873;28;20274;-92
2022/04/09 04:44:22;;;;;;;7.50;5.73;;;6.20;99.90;;;;;;10409224;28;20254;-93
2022/04/09 04:49:29;;;;;;;10.47;7.77;;;8.70;99.80;;;;;;10379383;28;20624;-92
2022/04/09 04:54:37;;;;;;;7.67;5.90;;;7.40;99.90;;;;;;10375032;28;20203;-92
2022/04/09 04:59:40;;;;;;;10.47;8.73;;;9.80;90.40;;;;;;10364514;28;20205;-92
2022/04/09 05:04:43;;;;;;;15.17;8.57;;;10.60;92.20;;;;;;10350944;28;20209;-92
2022/04/09 05:09:46;;;;;;;15.60;9.60;;;11.50;90.90;;;;;;10375920;28;20253;-91
2022/04/09 05:14:48;;;;;;;9.53;6.27;;;12.50;90.00;;;;;;10423117;28;20207;-91
2022/04/09 05:19:54;;;;;;;13.33;10.07;;;11.20;81.30;;;;;;10396520;28;20302;-93
2022/04/09 05:24:57;;;;;;;11.93;6.20;;;11.90;91.00;;;;;;10413696;28;20234;-92
2022/04/09 05:30:01;;;;;;;10.23;6.63;;;11.20;80.00;;;;;;10360181;28;20673;-92
2022/04/09 05:35:11;;;;;;;14.73;8.80;;;9.90;91.20;;;;;;10373589;28;20673;-92
2022/04/09 05:40:15;;;;;;;12.30;7.70;;;11.80;90.70;;;;;;10388492;28;20699;-93
2022/04/09 05:45:18;;;;;;;10.43;6.57;;;12.00;78.80;;;;;;10413273;28;20208;-92
2022/04/09 05:50:22;;;;;;;11.60;9.17;;;12.60;83.20;;;;;;10386214;28;20254;-92
2022/04/09 05:55:25;;;;;;;11.13;8.40;;;11.80;90.90;;;;;;10390187;28;20206;-92
2022/04/09 06:00:30;;;;;;;11.63;8.50;;;13.30;82.80;;;;;;10401889;28;20643;-92
2022/04/09 06:05:42;;;;;;;13.77;5.67;;;12.70;84.50;;;;;;10395063;28;20233;-92
2022/04/09 06:10:52;;;;;;;8.40;6.23;;;9.10;84.60;;;;;;10383724;28;20250;-92
2022/04/09 06:15:55;;;;;;;12.40;9.00;;;11.10;83.80;;;;;;10372750;28;20229;-92
2022/04/09 06:21:01;;;;;;;11.40;6.00;;;9.30;94.70;;;;;;10410443;28;20263;-92
2022/04/09 06:26:04;;;;;;;11.63;6.67;;;9.90;91.00;;;;;;10403061;28;20248;-92
2022/04/09 06:31:11;;;;;;;5.93;4.53;;;9.50;92.90;;;;;;10373001;28;20327;-92
2022/04/09 06:36:15;;;;;;;7.77;5.43;;;8.50;89.40;;;;;;10376175;28;20225;-92
2022/04/09 06:41:18;;;;;;;8.30;5.83;;;11.60;83.90;;;;;;10376179;28;20200;-90
2022/04/09 06:46:22;;;;;;;8.57;4.80;;;11.20;81.90;;;;;;10409103;28;20585;-91
2022/04/09 06:51:36;;;;;;;10.43;7.67;;;8.70;86.60;;;;;;10371517;28;20256;-90
2022/04/09 06:56:57;;;;;;;6.83;4.80;;;12.30;88.30;;;;;;10373565;28;20257;-90
2022/04/09 07:02:01;;;;;;;9.07;4.90;;;11.40;76.80;;;;;;10376105;28;20610;-92
2022/04/09 07:07:03;;;;;;;7.73;5.97;;;11.40;80.20;;;;;;10368162;28;20252;-91
2022/04/09 07:12:07;;;;;;;7.73;4.07;;;10.10;91.40;;;;;;10368902;28;20252;-91
2022/04/09 07:17:11;;;;;;;6.73;5.30;;;7.90;87.90;;;;;;10371386;28;20223;-89
2022/04/09 07:22:13;;;;;;;8.17;6.20;;;10.70;90.60;;;;;;10368255;28;20208;-89
2022/04/09 07:27:16;;;;;;;9.90;6.53;;;10.60;91.90;;;;;;10366975;28;20231;-90
2022/04/09 07:32:18;;;;;;;9.37;6.13;;;11.80;84.70;;;;;;10352586;28;20713;-90
2022/04/09 07:37:21;;;;;;;6.67;5.30;;;11.10;86.90;;;;;;10385870;28;20227;-90
2022/04/09 07:42:23;;;;;;;9.33;6.23;;;11.70;85.50;;;;;;10395192;28;20234;-91
2022/04/09 07:47:26;;;;;;;6.57;3.43;;;13.40;79.50;;;;;;10410810;28;20674;-90
2022/04/09 09:07:45;;;;;;;6.60;4.13;;;12.60;68.20;;;;;;7047046;23;20262;-89
2022/04/09 09:13:11;;;;;;;6.07;4.17;;;10.60;81.60;;;;;;10307188;28;20305;-90
2022/04/09 09:18:20;;;;;;;3.87;1.93;;;14.00;75.20;;;;;;10288323;28;20264;-89
2022/04/09 09:23:29;;;;;;;6.47;2.13;;;13.50;57.50;;;;;;10289805;28;20582;-89
2022/04/09 09:28:33;;;;;;;5.90;3.57;;;9.90;61.80;;;;;;10293247;28;20595;-90
2022/04/09 09:33:36;;;;;;;4.00;2.97;;;12.40;75.40;;;;;;10331160;28;20267;-89
2022/04/09 09:39:03;;;;;;;4.83;2.47;;;13.40;65.00;;;;;;10313774;28;20255;-90
2022/04/09 09:44:07;;;;;;;5.83;2.07;;;13.70;67.40;;;;;;10307583;28;20276;-88
2022/04/09 09:49:09;;;;;;;2.13;1.30;;;11.80;56.70;;;;;;10300539;28;20240;-88
2022/04/09 09:54:13;;;;;;;3.90;1.97;;;10.60;57.80;;;;;;10317262;28;20234;-85
2022/04/09 09:59:16;;;;;;;3.07;1.70;;;9.60;63.70;;;;;;10308326;28;20303;-86
2022/04/09 10:04:18;;;;;;;6.17;2.03;;;8.80;62.50;;;;;;10313193;28;20268;-85
2022/04/09 10:09:23;;;;;;;2.60;2.40;;;8.30;65.90;;;;;;10329009;28;20292;-87
2022/04/09 10:14:28;;;;;;;4.03;2.80;;;8.10;65.90;;;;;;10330948;28;20604;-85
2022/04/09 10:19:31;;;;;;;5.57;2.20;;;9.60;65.10;;;;;;10329899;28;20248;-85
2022/04/09 10:24:35;;;;;;;3.50;2.30;;;8.50;66.20;;;;;;10330767;28;20244;-83
2022/04/09 10:29:49;;;;;;;6.73;2.13;;;9.80;77.50;;;;;;10329718;28;20242;-87
2022/04/09 10:34:52;;;;;;;2.93;1.57;;;11.90;58.70;;;;;;10297538;28;20233;-89
2022/04/09 10:39:54;;;;;;;3.27;1.67;;;11.70;55.40;;;;;;10334031;28;20213;-89
2022/04/09 10:44:57;;;;;;;4.33;1.57;;;11.90;55.70;;;;;;10312827;28;20378;-90
2022/04/09 10:50:05;;;;;;;2.77;1.70;;;13.40;56.00;;;;;;10313517;28;20259;-89
2022/04/09 10:55:10;;;;;;;3.83;1.27;;;13.10;53.90;;;;;;10330749;28;20291;-90
2022/04/09 11:00:29;;;;;;;4.93;1.67;;;14.70;53.10;;;;;;10312474;28;20291;-90
2022/04/09 11:05:33;;;;;;;6.43;1.30;;;15.20;52.50;;;;;;10337536;28;20216;-92
2022/04/09 11:10:36;;;;;;;2.70;0.90;;;15.30;52.60;;;;;;10290271;28;20249;-91
2022/04/09 11:15:44;;;;;;;4.83;1.60;;;15.30;52.40;;;;;;10276944;28;20613;-90
2022/04/09 11:20:47;;;;;;;3.33;1.40;;;14.70;53.70;;;;;;10296975;28;20217;-89
2022/04/09 11:25:49;;;;;;;2.57;1.33;;;15.10;53.50;;;;;;10288626;28;20269;-89
2022/04/09 11:31:02;;;;;;;3.37;1.30;;;15.30;52.90;;;;;;10287883;28;20256;-89
2022/04/09 11:36:04;;;;;;;3.47;1.23;;;15.70;52.50;;;;;;10272557;28;20256;-91
2022/04/09 11:41:19;;;;;;;2.63;1.00;;;15.80;52.30;;;;;;10287679;28;20638;-90
2022/04/09 11:46:22;;;;;;;1.40;1.30;;;15.80;52.50;;;;;;10287383;28;20375;-90
2022/04/09 11:51:24;;;;;;;3.17;1.37;;;15.20;51.90;;;;;;10287501;28;20261;-91
2022/04/09 11:56:27;;;;;;;2.87;1.73;;;15.80;52.20;;;;;;10255979;28;20218;-90
2022/04/09 12:01:30;;;;;;;3.63;1.40;;;15.90;52.40;;;;;;10271994;28;20230;-89
2022/04/09 12:06:33;;;;;;;5.93;1.60;;;15.80;52.30;;;;;;10289476;28;20241;-89
2022/04/09 12:11:41;;;;;;;1.67;1.10;;;16.00;50.90;;;;;;10256162;28;20277;-90
2022/04/09 12:16:43;;;;;;;2.67;1.10;;;15.70;52.70;;;;;;10272617;28;20783;-90
2022/04/09 12:21:46;;;;;;;2.13;1.50;;;15.50;53.20;;;;;;10271745;28;20241;-90
2022/04/09 12:26:57;;;;;;;1.47;1.07;;;15.60;52.10;;;;;;10275489;28;20241;-89
2022/04/09 12:32:25;;;;;;;2.10;1.00;;;16.00;53.10;;;;;;10279413;28;20286;-90
2022/04/09 12:37:32;;;;;;;2.07;1.20;;;16.00;52.80;;;;;;10279512;28;20214;-91
2022/04/09 12:42:35;;;;;;;1.10;1.00;;;15.90;53.10;;;;;;10289105;28;20917;-89
2022/04/09 12:47:38;;;;;;;2.27;1.17;;;15.80;52.70;;;;;;10267449;28;20598;-90
2022/04/09 12:52:41;;;;;;;1.43;0.97;;;16.00;53.00;;;;;;10300826;28;20229;-90
2022/04/09 12:57:44;;;;;;;2.47;0.93;;;16.10;52.90;;;;;;10298535;28;20201;-90
2022/04/09 13:02:48;;;;;;;2.23;1.30;;;16.00;52.50;;;;;;10262980;28;20586;-90
2022/04/09 13:07:50;;;;;;;1.90;1.17;;;16.00;52.90;;;;;;10293924;28;20256;-90
2022/04/09 13:12:53;;;;;;;4.13;1.07;;;16.00;53.10;;;;;;10260839;28;20324;-90
2022/04/09 13:17:56;;;;;;;1.27;0.90;;;16.00;53.10;;;;;;10260721;28;20241;-89
2022/04/09 13:22:58;;;;;;;4.93;1.53;;;16.10;53.20;;;;;;10292058;28;20249;-89
2022/04/09 13:28:04;;;;;;;2.53;1.50;;;14.60;52.20;;;;;;10272992;28;20265;-84
2022/04/09 13:33:06;;;;;;;4.97;1.73;;;14.00;46.30;;;;;;10292316;28;20312;-84
2022/04/09 13:38:09;;;;;;;4.50;1.07;;;15.80;45.30;;;;;;10288676;28;20233;-84
2022/04/09 13:43:13;;;;;;;3.13;0.90;;;17.40;43.90;;;;;;10293063;28;20288;-84
2022/04/09 13:48:16;;;;;;;1.93;0.90;;;17.70;77.20;;;;;;10293117;28;20282;-83
2022/04/09 13:53:18;;;;;;;2.33;1.00;;;18.00;44.20;;;;;;10289988;28;20288;-84
2022/04/09 13:58:20;;;;;;;8.73;1.73;;;18.30;44.40;;;;;;10291729;28;20681;-83
2022/04/09 14:03:23;;;;;;;3.70;1.80;;;16.30;41.30;;;;;;10290160;28;20267;-83
2022/04/09 14:08:27;;;;;;;3.83;2.00;;;12.90;46.40;;;;;;10298218;28;20260;-83
2022/04/09 14:13:30;;;;;;;1.73;1.50;;;11.60;49.80;;;;;;10331267;28;20654;-84
2022/04/09 14:18:33;;;;;;;4.00;2.00;;;14.30;59.90;;;;;;10310320;28;20259;-83
2022/04/09 14:23:35;;;;;;;2.93;1.90;;;18.50;55.90;;;;;;10278509;28;20898;-83
2022/04/09 14:28:38;;;;;;;3.27;1.73;;;;;;;;;;10330011;28;20295;-84
2022/04/09 14:33:40;;;;;;;6.00;2.33;;;18.50;56.20;;;;;;10314713;28;20256;-84
2022/04/09 14:38:43;;;;;;;5.10;2.90;;;19.10;55.70;;;;;;10312671;28;20232;-84
2022/04/09 14:43:46;;;;;;;6.00;2.20;;;19.20;55.00;;;;;;10330666;28;20295;-84
2022/04/09 14:48:48;;;;;;;4.93;2.40;;;19.10;54.90;;;;;;10329336;28;20255;-83
2022/04/09 14:53:50;;;;;;;2.70;1.83;;;19.10;54.50;;;;;;9983142;28;10000436;-84
2022/04/09 14:58:58;;;;;;;1.70;1.40;;;19.20;53.60;;;;;;10326706;28;20251;-84
2022/04/09 15:04:01;;;;;;;2.40;1.60;;;19.10;53.60;;;;;;10326265;28;20240;-86
2022/04/09 15:09:06;;;;;;;4.33;1.63;;;19.00;49.60;;;;;;10326769;28;20303;-85
2022/04/09 15:14:09;;;;;;;3.80;1.60;;;18.90;52.90;;;;;;10310140;28;20260;-87
2022/04/09 15:19:11;;;;;;;3.63;1.87;;;17.70;45.40;;;;;;10300359;28;20831;-85
2022/04/09 15:24:14;;;;;;;2.07;1.20;;;18.70;52.60;;;;;;10323152;28;20980;-86
2022/04/09 15:29:17;;;;;;;4.40;2.00;;;18.50;51.70;;;;;;10294398;28;20237;-85
2022/04/09 15:34:19;;;;;;;3.40;1.50;;;18.40;53.20;;;;;;10324573;28;20268;-85
2022/04/09 15:39:22;;;;;;;5.60;1.37;;;18.30;53.40;;;;;;10324596;28;20291;-85
2022/04/09 15:44:25;;;;;;;2.40;1.63;;;17.20;55.40;;;;;;10325239;28;20242;-85
2022/04/09 15:49:28;;;;;;;1.83;1.40;;;18.10;54.30;;;;;;10325673;28;20248;-85
2022/04/09 15:54:30;;;;;;;2.40;1.53;;;18.30;53.80;;;;;;10308599;28;20639;-84
2022/04/09 15:59:32;;;;;;;2.30;1.40;;;18.30;53.80;;;;;;10329813;28;20197;-85
2022/04/09 16:04:35;;;;;;;1.60;1.10;;;18.40;53.80;;;;;;10330640;28;20212;-85
2022/04/09 16:09:37;;;;;;;4.80;2.17;;;18.40;53.70;;;;;;10327325;28;20672;-83
2022/04/09 16:14:40;;;;;;;14.97;6.60;;;17.70;46.40;;;;;;10312229;28;20648;-84
2022/04/09 16:19:43;;;;;;;4.77;1.77;;;9.20;67.70;;;;;;10331705;28;20211;-84
2022/04/09 16:24:46;;;;;;;2.00;1.30;;;11.70;80.40;;;;;;10328170;28;20240;-84
2022/04/09 16:29:48;;;;;;;3.33;2.00;;;8.90;91.50;;;;;;10300334;28;20238;-83
2022/04/09 16:34:50;;;;;;;5.53;2.67;;;10.50;99.90;;;;;;10347491;28;20274;-83
2022/04/09 16:39:54;;;;;;;4.87;2.17;;;11.60;99.90;;;;;;10378881;28;20224;-84
2022/04/09 16:44:57;;;;;;;4.47;1.73;;;16.90;77.60;;;;;;10375319;28;20213;-84
2022/04/09 16:49:59;;;;;;;1.93;1.53;;;17.00;77.60;;;;;;10366909;28;20192;-84
2022/04/09 16:55:02;;;;;;;1.47;1.20;;;17.30;72.90;;;;;;10362059;28;20252;-85
2022/04/09 17:00:05;;;;;;;2.60;1.53;;;17.50;71.00;;;;;;10364320;28;20185;-85
2022/04/09 17:05:08;;;;;;;3.43;1.83;;;17.70;69.60;;;;;;10380101;28;20193;-84
2022/04/09 17:10:11;;;;;;;2.40;1.80;;;17.60;68.90;;;;;;10379146;28;20231;-84
2022/04/09 17:15:15;;;;;;;3.87;1.60;;;16.30;77.00;;;;;;10366484;28;20228;-84
2022/04/09 17:20:20;;;;;;;4.60;1.60;;;17.20;73.30;;;;;;10363351;28;20182;-85
2022/04/09 17:25:23;;;;;;;4.07;1.83;;;17.40;71.70;;;;;;10377014;28;20241;-85
2022/04/09 17:30:26;;;;;;;3.40;1.80;;;17.30;71.40;;;;;;10359183;28;20213;-85
2022/04/09 17:35:28;;;;;;;4.10;2.23;;;17.40;70.50;;;;;;10348351;28;20232;-85
2022/04/09 17:40:31;;;;;;;2.20;1.30;;;17.40;69.90;;;;;;10329057;28;20291;-85
2022/04/09 17:45:33;;;;;;;3.30;1.60;;;17.50;69.10;;;;;;10346699;28;20230;-85
2022/04/09 17:50:36;;;;;;;3.23;1.87;;;17.50;68.30;;;;;;10330444;28;20244;-85
2022/04/09 17:55:38;;;;;;;2.97;1.77;;;17.50;68.10;;;;;;10320435;28;20227;-84
2022/04/09 18:00:41;;;;;;;5.30;2.17;;;17.30;68.20;;;;;;10323481;28;20201;-85
2022/04/09 18:05:43;;;;;;;3.77;2.03;;;17.30;67.90;;;;;;10306295;28;20205;-84
2022/04/09 18:10:46;;;;;;;4.27;2.20;;;17.30;67.60;;;;;;10280256;28;20234;-85
2022/04/09 18:15:49;;;;;;;3.57;1.90;;;17.30;67.10;;;;;;10301824;28;20591;-85
2022/04/09 18:20:52;;;;;;;2.40;1.63;;;17.30;66.60;;;;;;10302333;28;20209;-86
2022/04/09 18:25:54;;;;;;;4.33;1.90;;;17.40;66.20;;;;;;10293833;28;20976;-85
2022/04/09 18:30:57;;;;;;;4.67;2.37;;;17.40;66.00;;;;;;10292126;28;20592;-86
2022/04/09 18:35:59;;;;;;;3.33;1.80;;;17.30;65.60;;;;;;10261884;28;20592;-86
2022/04/09 18:41:02;;;;;;;3.80;1.67;;;17.30;65.60;;;;;;10290746;28;20686;-86
2022/04/09 18:46:05;;;;;;;5.27;2.13;;;17.20;65.50;;;;;;10289461;28;20244;-86
2022/04/09 18:51:09;;;;;;;3.23;1.83;;;17.20;65.10;;;;;;10286079;28;20206;-86
2022/04/09 18:56:12;;;;;;;4.17;1.60;;;17.20;64.80;;;;;;9912837;28;10000159;-86
2022/04/09 19:01:33;;;;;;;2.73;1.90;;;17.20;64.60;;;;;;10284769;28;20246;-86
2022/04/09 19:06:37;;;;;;;4.50;1.70;;;17.10;64.40;;;;;;10262027;28;20206;-86
2022/04/09 19:11:40;;;;;;;1.57;1.40;;;17.10;64.40;;;;;;10322096;28;20268;-86
2022/04/09 19:16:43;;;;;;;3.47;1.53;;;17.10;64.30;;;;;;10322179;28;20848;-86
2022/04/09 19:21:46;;;;;;;3.13;2.10;;;17.10;64.00;;;;;;10325650;28;20292;-86
2022/04/09 19:26:48;;;;;;;3.07;2.27;;;17.00;63.90;;;;;;10325667;28;20302;-86
2022/04/09 19:31:51;;;;;;;3.50;2.10;;;17.00;63.80;;;;;;10283182;28;20271;-86
2022/04/09 19:36:54;;;;;;;2.20;1.50;;;17.00;63.70;;;;;;10283948;28;20613;-86
2022/04/09 19:41:56;;;;;;;2.87;1.90;;;17.00;63.70;;;;;;10290837;28;20243;-86
2022/04/09 19:47:01;;;;;;;3.53;2.03;;;16.90;63.50;;;;;;10324484;28;20360;-86
2022/04/09 19:52:03;;;;;;;2.67;2.00;;;16.80;63.50;;;;;;10324305;28;20726;-86
2022/04/09 19:57:06;;;;;;;4.50;2.47;;;16.80;63.40;;;;;;10321910;28;20609;-86
2022/04/09 20:02:08;;;;;;;2.60;1.90;;;16.90;63.30;;;;;;10308402;28;20295;-86
2022/04/09 20:07:11;;;;;;;2.90;2.00;;;16.80;63.20;;;;;;10282782;28;20296;-86
2022/04/09 20:12:14;;;;;;;4.43;2.37;;;16.80;63.10;;;;;;10274566;28;20627;-86
2022/04/09 20:17:17;;;;;;;3.00;1.93;;;16.80;62.90;;;;;;10282755;28;20770;-85
2022/04/09 20:22:25;;;;;;;3.97;2.40;;;16.70;62.80;;;;;;10265486;28;20265;-86
2022/04/09 20:27:28;;;;;;;3.43;2.23;;;16.60;63.00;;;;;;10282506;28;20231;-86
2022/04/09 20:32:31;;;;;;;2.77;1.80;;;16.70;62.90;;;;;;10264849;28;20345;-86
2022/04/09 20:37:33;;;;;;;6.03;3.17;;;16.60;63.10;;;;;;10282873;28;20237;-86
2022/04/09 20:42:36;;;;;;;4.17;2.67;;;16.50;63.20;;;;;;10283528;28;20705;-86
2022/04/09 20:47:38;;;;;;;4.87;2.10;;;16.30;63.70;;;;;;10266692;28;20233;-86
2022/04/09 20:52:42;;;;;;;3.33;2.10;;;16.50;63.40;;;;;;10270196;28;20315;-86
2022/04/09 20:57:44;;;;;;;4.23;2.50;;;16.50;63.20;;;;;;10289316;28;20245;-86
2022/04/09 21:02:47;;;;;;;3.60;2.00;;;16.60;63.10;;;;;;10272422;28;20273;-86
2022/04/09 21:07:50;;;;;;;2.93;1.93;;;16.60;62.90;;;;;;10272724;28;20672;-86
2022/04/09 21:12:52;;;;;;;5.33;2.20;;;16.60;62.80;;;;;;10258150;28;20293;-86
2022/04/09 21:17:55;;;;;;;3.47;2.03;;;16.50;62.70;;;;;;10274209;28;20288;-86
2022/04/09 21:22:58;;;;;;;4.47;2.53;;;16.50;62.90;;;;;;10282232;28;20752;-86
2022/04/09 21:28:00;;;;;;;4.50;2.93;;;16.40;62.80;;;;;;10291736;28;20300;-86
2022/04/09 21:33:05;;;;;;;3.63;2.37;;;16.40;62.80;;;;;;10290322;28;20838;-86
2022/04/09 21:38:08;;;;;;;3.17;2.00;;;16.40;62.90;;;;;;10288465;28;20245;-86
2022/04/09 21:43:11;;;;;;;3.07;2.00;;;16.10;63.30;;;;;;10288920;28;20272;-86
2022/04/09 21:48:13;;;;;;;3.90;2.33;;;15.90;63.80;;;;;;10273154;28;20260;-86
2022/04/09 21:53:16;;;;;;;2.87;2.17;;;15.80;64.00;;;;;;10273159;28;20261;-86
2022/04/09 21:58:18;;;;;;;4.30;2.60;;;16.20;63.30;;;;;;10258394;28;20246;-86
2022/04/09 22:03:21;;;;;;;4.27;2.73;;;16.20;63.10;;;;;;10290944;28;20237;-86
2022/04/09 22:08:24;;;;;;;4.27;3.03;;;16.10;63.30;;;;;;10266998;28;20679;-86
2022/04/09 22:13:26;;;;;;;5.03;2.67;;;16.00;63.20;;;;;;10262902;28;20258;-86
2022/04/09 22:18:30;;;;;;;4.27;2.37;;;16.20;63.10;;;;;;10272966;28;20744;-86
2022/04/09 22:23:33;;;;;;;3.33;2.13;;;16.20;62.90;;;;;;10272240;28;20243;-86
2022/04/09 22:28:35;;;;;;;4.17;2.80;;;16.20;62.70;;;;;;10271606;28;20307;-86
2022/04/09 22:33:38;;;;;;;3.20;2.43;;;16.00;63.10;;;;;;10291149;28;20705;-85
2022/04/09 22:38:40;;;;;;;3.70;2.10;;;16.10;62.40;;;;;;10271987;28;20293;-86
2022/04/09 22:43:43;;;;;;;3.97;2.47;;;16.20;62.60;;;;;;10266230;28;20561;-86
2022/04/09 22:48:45;;;;;;;4.00;2.23;;;16.10;62.60;;;;;;10274208;28;20221;-85
2022/04/09 22:53:48;;;;;;;2.97;2.10;;;16.10;62.60;;;;;;10291660;28;20269;-86
2022/04/09 22:58:51;;;;;;;2.87;2.00;;;16.10;62.60;;;;;;10267013;28;20239;-85
2022/04/09 23:03:54;;;;;;;2.90;2.33;;;16.10;62.60;;;;;;10269554;28;20629;-86
2022/04/09 23:08:56;;;;;;;3.80;1.80;;;16.10;62.40;;;;;;10284177;28;20269;-86
2022/04/09 23:13:59;;;;;;;4.23;2.27;;;16.20;62.30;;;;;;10329783;28;20318;-86
2022/04/09 23:19:01;;;;;;;4.10;2.43;;;16.10;62.20;;;;;;10296650;28;20271;-86
2022/04/09 23:24:04;;;;;;;2.50;1.97;;;16.10;62.20;;;;;;10285309;28;20640;-86
2022/04/09 23:29:07;;;;;;;3.37;2.27;;;16.00;62.40;;;;;;10311835;28;20217;-86
2022/04/09 23:34:10;;;;;;;3.63;2.17;;;16.00;62.30;;;;;;10329071;28;20650;-86
2022/04/09 23:39:12;;;;;;;3.87;2.33;;;16.00;62.20;;;;;;10305586;28;20237;-86
2022/04/09 23:44:17;;;;;;;4.00;2.17;;;16.00;62.20;;;;;;10329273;28;20248;-86
2022/04/09 23:49:20;;;;;;;2.70;1.93;;;16.00;62.10;;;;;;10328638;28;20629;-86
2022/04/09 23:54:22;;;;;;;4.37;2.53;;;16.00;62.10;;;;;;10326353;28;20256;-86
2022/04/09 23:59:25;;;;;;;3.80;2.10;;;16.00;62.00;;;;;;10310462;28;20240;-86
